Time;durP1;ratioP1;P1;durP2;ratioP2;P2;SDS_P1;SDS_P2;PMS_P1;PMS_P2;Temp;Humidity;BMP_temperature;BMP_pressure;BME280_temperature;BME280_humidity;BME280_pressure;Samples;Min_cycle;Max_cycle;Signal;HPM_P1;HPM_P2
2024/01/16 00:02:13;;;;;;;;;0.00;0.00;;;;;2.08;85.25;100836.88;5064310;28;11492;-67
2024/01/16 00:04:40;;;;;;;;;0.00;0.00;;;;;2.04;84.62;100823.03;5072202;28;11468;-66
2024/01/16 00:07:07;;;;;;;;;0.00;0.00;;;;;2.01;84.68;100825.97;5072196;28;11481;-67
2024/01/16 00:09:34;;;;;;;;;0.00;0.00;;;;;2.05;84.68;100837.16;5070962;28;11532;-66
2024/01/16 00:12:04;;;;;;;;;1.00;0.00;;;;;2.07;84.55;100841.38;5067207;28;12235;-66
2024/01/16 00:14:35;;;;;;;;;0.00;0.00;;;;;2.11;84.44;100847.22;5067979;28;11475;-66
2024/01/16 00:17:02;;;;;;;;;1.75;1.00;;;;;2.14;84.40;100833.66;5070440;28;11478;-66
2024/01/16 00:19:29;;;;;;;;;0.50;0.00;;;;;2.17;84.08;100830.72;5070832;28;11533;-66
2024/01/16 00:21:55;;;;;;;;;0.00;0.00;;;;;2.14;83.95;100836.31;5069252;28;12268;-67
2024/01/16 00:24:22;;;;;;;;;0.00;0.00;;;;;2.11;83.74;100831.31;5071315;28;11503;-66
2024/01/16 00:26:49;;;;;;;;;0.00;0.00;;;;;2.07;83.33;100830.75;5069039;28;11584;-66
2024/01/16 00:29:16;;;;;;;;;0.00;0.00;;;;;2.10;83.41;100841.06;5071767;28;11581;-66
2024/01/16 00:31:43;;;;;;;;;1.00;0.00;;;;;2.14;83.44;100831.84;5063689;28;11497;-66
2024/01/16 00:34:10;;;;;;;;;0.00;0.00;;;;;2.17;82.58;100836.03;5071599;28;11579;-66
2024/01/16 00:36:37;;;;;;;;;0.00;0.00;;;;;2.18;82.74;100835.88;5071849;28;11466;-67
2024/01/16 00:39:03;;;;;;;;;0.00;0.00;;;;;2.19;83.04;100834.09;5072381;28;11562;-66
2024/01/16 00:41:30;;;;;;;;;0.00;0.00;;;;;2.19;82.39;100840.25;5070358;28;11477;-67
2024/01/16 00:43:56;;;;;;;;;0.00;0.00;;;;;2.23;82.16;100840.81;5063871;28;11577;-67
2024/01/16 00:46:23;;;;;;;;;0.00;0.00;;;;;2.26;82.71;100834.34;5069823;28;12490;-67
2024/01/16 00:48:49;;;;;;;;;0.00;0.00;;;;;2.30;82.09;100838.41;5065408;28;12237;-66
2024/01/16 00:51:16;;;;;;;;;0.00;0.00;;;;;2.31;81.84;100835.63;5063535;28;11481;-67
2024/01/16 00:53:43;;;;;;;;;1.00;0.00;;;;;2.34;81.89;100829.19;5070575;28;11587;-66
2024/01/16 00:56:12;;;;;;;;;0.75;0.00;;;;;2.32;81.59;100837.28;5070299;28;11604;-67
2024/01/16 00:58:39;;;;;;;;;1.00;0.00;;;;;2.32;81.82;100839.94;5066429;28;12255;-66
2024/01/16 01:01:06;;;;;;;;;0.00;0.00;;;;;2.32;81.56;100876.31;5058263;28;11563;-66
2024/01/16 01:03:32;;;;;;;;;0.00;0.00;;;;;2.09;81.51;100876.56;5071430;28;12891;-66
2024/01/16 01:06:00;;;;;;;;;0.00;0.00;;;;;1.90;82.24;100877.38;5064497;28;11665;-66
2024/01/16 01:08:28;;;;;;;;;0.50;0.00;;;;;1.79;83.24;100884.63;5061255;28;11482;-66
2024/01/16 01:10:54;;;;;;;;;0.75;0.00;;;;;1.73;84.05;100883.34;5070706;28;11477;-66
2024/01/16 01:13:22;;;;;;;;;0.00;0.00;;;;;1.65;84.71;100894.63;5069394;28;12247;-66
2024/01/16 01:15:48;;;;;;;;;0.00;0.00;;;;;1.62;86.03;100886.09;5052987;28;12283;-66
2024/01/16 01:18:15;;;;;;;;;0.00;0.00;;;;;1.65;86.29;100894.63;5067211;28;11487;-67
2024/01/16 01:20:42;;;;;;;;;1.00;1.00;;;;;1.64;86.28;100878.84;5069465;28;11461;-67
2024/01/16 01:23:09;;;;;;;;;0.00;0.00;;;;;1.59;86.82;100876.63;5065510;28;11490;-66
2024/01/16 01:25:36;;;;;;;;;0.00;0.00;;;;;1.54;87.44;100867.38;5069836;28;11574;-66
2024/01/16 01:28:03;;;;;;;;;0.00;0.00;;;;;1.59;87.57;100865.16;5063427;28;11463;-66
2024/01/16 01:30:29;;;;;;;;;0.00;0.00;;;;;1.60;87.67;100864.19;5071458;28;11585;-66
2024/01/16 01:32:56;;;;;;;;;0.00;0.00;;;;;1.61;87.59;100866.69;5063779;28;11536;-66
2024/01/16 01:35:23;;;;;;;;;0.00;0.00;;;;;1.61;87.72;100857.91;5072528;28;11518;-67
2024/01/16 01:37:50;;;;;;;;;0.00;0.00;;;;;1.66;87.41;100872.47;5070958;28;11486;-67
2024/01/16 01:40:17;;;;;;;;;0.00;0.00;;;;;1.69;87.73;100874.81;5070782;28;11476;-66
2024/01/16 01:42:43;;;;;;;;;0.00;0.00;;;;;1.68;87.62;100880.28;5068245;28;11455;-66
2024/01/16 01:45:11;;;;;;;;;0.00;0.00;;;;;1.67;88.08;100874.13;5071150;28;11563;-66
2024/01/16 01:47:39;;;;;;;;;0.00;0.00;;;;;1.69;87.84;100881.94;5071425;28;11596;-66
2024/01/16 01:50:08;;;;;;;;;0.00;0.00;;;;;1.67;87.68;100892.69;5070777;28;12229;-66
2024/01/16 01:52:38;;;;;;;;;0.00;0.00;;;;;1.68;87.92;100888.22;5065952;28;11462;-66
2024/01/16 01:55:08;;;;;;;;;0.00;0.00;;;;;1.69;88.16;100882.78;5070774;28;11457;-66
2024/01/16 01:57:35;;;;;;;;;0.00;0.00;;;;;1.69;88.06;100880.13;5059950;28;12170;-66
2024/01/16 02:00:04;;;;;;;;;0.00;0.00;;;;;1.66;88.09;100866.28;5050331;28;11542;-66
2024/01/16 02:02:40;;;;;;;;;0.00;0.00;;;;;1.66;88.17;100864.50;5063476;28;11609;-66
2024/01/16 02:05:07;;;;;;;;;0.00;0.00;;;;;1.67;88.47;100866.16;5070092;28;11619;-66
2024/01/16 02:07:34;;;;;;;;;0.00;0.00;;;;;1.65;88.39;100857.50;5062420;28;11446;-66
2024/01/16 02:10:01;;;;;;;;;0.00;0.00;;;;;1.64;88.83;100870.91;5064177;28;11562;-66
2024/01/16 02:12:28;;;;;;;;;0.00;0.00;;;;;1.68;88.80;100861.69;5093110;23;11515;-70
2024/01/16 02:14:54;;;;;;;;;1.25;0.00;;;;;1.72;89.10;100866.59;5073011;28;11533;-70
2024/01/16 02:17:21;;;;;;;;;0.00;0.00;;;;;1.66;88.86;100869.81;5068776;28;11480;-68
2024/01/16 02:19:48;;;;;;;;;0.00;0.00;;;;;1.63;89.25;100869.22;5069600;28;11552;-68
2024/01/16 02:22:19;;;;;;;;;0.25;0.00;;;;;1.62;89.01;100867.53;5053239;28;11493;-69
2024/01/16 02:24:46;;;;;;;;;0.00;0.00;;;;;1.57;89.12;100864.44;5071587;28;11494;-69
2024/01/16 02:27:13;;;;;;;;;0.00;0.00;;;;;1.58;89.23;100861.69;5063883;28;11489;-68
2024/01/16 02:29:43;;;;;;;;;0.00;0.00;;;;;1.55;89.53;100853.16;5065738;28;12252;-69
2024/01/16 02:32:12;;;;;;;;;0.00;0.00;;;;;1.52;89.74;100858.72;5066985;28;11468;-65
2024/01/16 02:34:40;;;;;;;;;0.00;0.00;;;;;1.47;89.88;100859.13;5081180;28;11540;-69
2024/01/16 02:37:07;;;;;;;;;0.00;0.00;;;;;1.51;90.05;100868.50;5051221;28;11621;-67
2024/01/16 02:39:33;;;;;;;;;0.00;0.00;;;;;1.54;90.42;100864.72;5072455;28;11487;-69
2024/01/16 02:42:00;;;;;;;;;0.00;0.00;;;;;1.54;90.21;100865.59;5072821;28;11546;-69
2024/01/16 02:44:27;;;;;;;;;0.00;0.00;;;;;1.54;90.59;100867.38;5067763;28;11468;-68
2024/01/16 02:46:54;;;;;;;;;0.00;0.00;;;;;1.51;90.65;100857.88;5071182;28;11556;-69
2024/01/16 02:49:21;;;;;;;;;0.00;0.00;;;;;1.50;90.41;100864.16;5070796;28;11630;-69
2024/01/16 02:51:47;;;;;;;;;0.00;0.00;;;;;1.46;90.58;100855.63;5070755;28;11593;-68
2024/01/16 02:54:14;;;;;;;;;0.00;0.00;;;;;1.52;90.83;100853.41;5062876;28;11513;-69
2024/01/16 02:56:40;;;;;;;;;0.00;0.00;;;;;1.54;90.76;100851.44;5073673;28;12339;-68
2024/01/16 02:59:07;;;;;;;;;0.00;0.00;;;;;1.55;90.79;100842.53;5088766;28;11588;-68
2024/01/16 03:01:34;;;;;;;;;0.50;0.00;;;;;1.57;90.88;100846.72;5069482;28;11644;-68
2024/01/16 03:04:00;;;;;;;;;0.00;0.00;;;;;1.58;90.78;100847.56;5069001;28;12184;-69
2024/01/16 03:06:28;;;;;;;;;0.00;0.00;;;;;1.57;90.62;100851.19;5071436;28;11489;-69
2024/01/16 03:08:55;;;;;;;;;0.00;0.00;;;;;1.60;91.04;100845.63;5072948;28;12349;-68
2024/01/16 03:11:22;;;;;;;;;0.00;0.00;;;;;1.62;90.79;100846.31;5072367;28;11591;-69
2024/01/16 03:13:52;;;;;;;;;0.00;0.00;;;;;1.64;90.61;100847.84;5073507;28;11621;-69
2024/01/16 03:16:19;;;;;;;;;0.00;0.00;;;;;1.66;90.69;100845.06;5072789;28;11479;-69
2024/01/16 03:18:45;;;;;;;;;0.00;0.00;;;;;1.66;90.50;100839.75;5072938;28;11577;-69
2024/01/16 03:21:14;;;;;;;;;0.00;0.00;;;;;1.67;90.46;100841.44;5065634;28;11471;-67
2024/01/16 03:23:40;;;;;;;;;0.25;0.00;;;;;1.65;90.29;100838.91;5080394;28;12161;-68
2024/01/16 03:26:12;;;;;;;;;1.00;0.00;;;;;1.65;90.14;100836.25;5068688;28;11499;-69
2024/01/16 03:28:39;;;;;;;;;0.50;0.00;;;;;1.67;90.33;100841.44;5072524;28;12224;-69
2024/01/16 03:31:06;;;;;;;;;0.00;0.00;;;;;1.66;90.34;100839.75;5072344;28;11466;-67
2024/01/16 03:33:41;;;;;;;;;1.25;1.00;;;;;1.65;90.14;100841.56;5072443;28;11497;-68
2024/01/16 03:36:10;;;;;;;;;0.00;0.00;;;;;1.64;90.31;100849.69;5052037;28;11632;-68
2024/01/16 03:38:36;;;;;;;;;0.00;0.00;;;;;1.63;90.67;100848.84;5056725;28;11575;-67
2024/01/16 03:41:03;;;;;;;;;0.50;0.50;;;;;1.61;89.98;100834.84;5068377;28;11491;-69
2024/01/16 03:43:30;;;;;;;;;0.00;0.00;;;;;1.63;90.81;100842.69;5070844;28;11456;-69
2024/01/16 03:45:57;;;;;;;;;0.00;0.00;;;;;1.60;90.54;100842.97;5068670;28;11504;-67
2024/01/16 03:48:24;;;;;;;;;0.00;0.00;;;;;1.55;90.38;100846.03;5069126;28;11600;-69
2024/01/16 03:50:51;;;;;;;;;0.00;0.00;;;;;1.55;90.56;100839.88;5069479;28;11537;-67
2024/01/16 03:53:17;;;;;;;;;0.00;0.00;;;;;1.54;90.86;100849.66;5064663;28;11505;-69
2024/01/16 03:55:44;;;;;;;;;1.00;1.00;;;;;1.53;90.81;100844.47;5068189;28;11452;-68
2024/01/16 03:58:11;;;;;;;;;0.00;0.00;;;;;1.47;90.73;100848.53;5065718;28;11475;-68
2024/01/16 04:00:39;;;;;;;;;0.00;0.00;;;;;1.46;91.12;100837.06;5061855;28;11492;-68
2024/01/16 04:03:07;;;;;;;;;0.00;0.00;;;;;1.49;91.08;100838.59;5052766;28;11533;-68
2024/01/16 04:05:33;;;;;;;;;0.00;0.00;;;;;1.52;91.17;100837.50;5070342;28;12218;-68
2024/01/16 04:08:00;;;;;;;;;0.00;0.00;;;;;1.52;91.25;100833.03;5071825;28;11465;-68
2024/01/16 04:10:27;;;;;;;;;0.50;0.00;;;;;1.55;91.21;100830.09;5064130;28;11484;-69
2024/01/16 04:12:53;;;;;;;;;0.00;0.00;;;;;1.58;91.11;100840.47;5067753;28;12255;-68
2024/01/16 04:15:20;;;;;;;;;0.00;0.00;;;;;1.56;91.27;100842.41;5072051;28;11481;-68
2024/01/16 04:17:49;;;;;;;;;0.00;0.00;;;;;1.60;91.21;100845.63;5065214;28;11474;-68
2024/01/16 04:20:16;;;;;;;;;0.00;0.00;;;;;1.61;91.11;100842.81;5065023;28;11510;-69
2024/01/16 04:22:43;;;;;;;;;0.00;0.00;;;;;1.61;91.37;100829.56;5052225;28;11449;-70
2024/01/16 04:25:09;;;;;;;;;0.00;0.00;;;;;1.57;90.63;100835.28;5067275;28;11492;-69
2024/01/16 04:27:36;;;;;;;;;0.00;0.00;;;;;1.52;90.95;100841.00;5070665;28;11477;-69
2024/01/16 04:30:03;;;;;;;;;0.00;0.00;;;;;1.54;91.11;100838.19;5070690;28;11490;-70
2024/01/16 04:32:29;;;;;;;;;0.00;0.00;;;;;1.59;91.41;100836.00;5062073;28;11488;-70
2024/01/16 04:34:57;;;;;;;;;0.00;0.00;;;;;1.60;91.34;100819.91;5033565;28;11509;-69
2024/01/16 04:37:23;;;;;;;;;0.00;0.00;;;;;1.61;91.30;100818.09;5064690;28;11399;-70
2024/01/16 04:39:50;;;;;;;;;0.00;0.00;;;;;1.63;91.11;100818.81;5071327;28;11446;-68
2024/01/16 04:42:20;;;;;;;;;0.00;0.00;;;;;1.64;90.98;100817.84;5069709;28;11621;-70
2024/01/16 04:44:46;;;;;;;;;0.00;0.00;;;;;1.61;90.68;100813.63;5071239;28;11492;-67
2024/01/16 04:47:13;;;;;;;;;0.00;0.00;;;;;1.60;90.79;100814.63;5065162;28;11461;-69
2024/01/16 04:49:42;;;;;;;;;1.00;1.00;;;;;1.58;90.61;100818.38;5050809;28;11629;-70
2024/01/16 04:52:08;;;;;;;;;0.00;0.00;;;;;1.56;90.64;100815.88;5070034;28;11494;-70
2024/01/16 04:54:35;;;;;;;;;0.00;0.00;;;;;1.57;90.86;100819.34;5069865;28;11554;-69
2024/01/16 04:57:01;;;;;;;;;0.00;0.00;;;;;1.56;90.56;100815.88;5066036;28;11473;-70
2024/01/16 04:59:28;;;;;;;;;1.00;0.00;;;;;1.56;90.68;100810.56;5070102;28;11450;-71
2024/01/16 05:01:55;;;;;;;;;0.00;0.00;;;;;1.57;90.80;100800.78;5069375;28;11609;-68
2024/01/16 05:04:21;;;;;;;;;0.00;0.00;;;;;1.54;90.55;100793.94;5062368;28;11434;-70
2024/01/16 05:06:51;;;;;;;;;0.00;0.00;;;;;1.56;90.77;100799.09;5066120;28;11585;-69
2024/01/16 05:09:21;;;;;;;;;0.00;0.00;;;;;1.53;90.80;100805.50;5068421;28;12216;-69
2024/01/16 05:11:48;;;;;;;;;0.00;0.00;;;;;1.54;90.63;100796.59;5068784;28;11496;-70
2024/01/16 05:14:14;;;;;;;;;0.00;0.00;;;;;1.52;90.58;100805.66;5070698;28;12236;-70
2024/01/16 05:16:41;;;;;;;;;0.00;0.00;;;;;1.51;90.88;100804.00;5063086;28;11485;-68
2024/01/16 05:19:08;;;;;;;;;1.00;1.00;;;;;1.45;91.05;100814.16;5060903;28;11471;-69
2024/01/16 05:21:34;;;;;;;;;0.00;0.00;;;;;1.45;90.71;100803.53;5069033;28;11469;-70
2024/01/16 05:24:02;;;;;;;;;0.00;0.00;;;;;1.46;90.75;100793.81;5070881;28;11460;-69
2024/01/16 05:26:29;;;;;;;;;0.00;0.00;;;;;1.40;90.66;100803.13;5064138;28;12178;-70
2024/01/16 05:28:55;;;;;;;;;1.00;0.00;;;;;1.40;91.00;100795.16;5051226;28;11589;-69
2024/01/16 05:31:22;;;;;;;;;0.75;0.75;;;;;1.43;90.80;100792.25;5068605;28;11509;-69
2024/01/16 05:33:48;;;;;;;;;0.00;0.00;;;;;1.41;90.61;100782.75;5061958;28;11513;-70
2024/01/16 05:36:15;;;;;;;;;0.00;0.00;;;;;1.34;90.84;100782.47;5080671;28;11536;-69
2024/01/16 05:38:42;;;;;;;;;0.00;0.00;;;;;1.35;91.41;100770.03;5063378;28;11583;-69
2024/01/16 05:41:08;;;;;;;;;0.00;0.00;;;;;1.28;90.80;100759.13;5067921;28;12245;-69
2024/01/16 05:43:35;;;;;;;;;0.00;0.00;;;;;1.32;91.10;100767.66;5069190;28;11484;-69
2024/01/16 05:46:02;;;;;;;;;0.00;0.00;;;;;1.30;90.91;100773.09;5061446;28;11526;-69
2024/01/16 05:48:28;;;;;;;;;0.00;0.00;;;;;1.34;90.92;100776.31;5068260;28;11473;-67
2024/01/16 05:50:55;;;;;;;;;1.50;0.00;;;;;1.38;91.13;100780.38;5060647;28;11482;-69
2024/01/16 05:53:22;;;;;;;;;0.00;0.00;;;;;1.38;91.14;100786.53;5068410;28;11496;-69
2024/01/16 05:55:48;;;;;;;;;0.00;0.00;;;;;1.36;90.81;100780.50;5065972;28;11473;-70
2024/01/16 05:58:15;;;;;;;;;0.00;0.00;;;;;1.38;91.09;100764.47;5066009;28;11468;-70
2024/01/16 06:00:41;;;;;;;;;1.75;0.00;;;;;1.32;90.76;100779.09;5068794;28;11481;-70
2024/01/16 06:03:08;;;;;;;;;0.00;0.00;;;;;1.30;90.92;100777.53;5061080;28;11537;-70
2024/01/16 06:05:35;;;;;;;;;0.00;0.00;;;;;1.30;91.17;100783.72;5064962;28;11497;-68
2024/01/16 06:08:02;;;;;;;;;0.00;0.00;;;;;1.32;91.30;100775.59;5064600;28;11624;-70
2024/01/16 06:10:29;;;;;;;;;0.00;0.00;;;;;1.34;91.49;100779.81;5067166;28;11463;-69
2024/01/16 06:12:56;;;;;;;;;1.75;0.00;;;;;1.32;91.29;100781.75;5068043;28;11619;-69
2024/01/16 06:15:23;;;;;;;;;0.00;0.00;;;;;1.29;91.47;100778.53;5067293;28;11496;-70
2024/01/16 06:17:49;;;;;;;;;1.00;1.00;;;;;1.28;91.54;100785.63;5066427;28;11494;-67
2024/01/16 06:20:16;;;;;;;;;0.00;0.00;;;;;1.30;91.58;100789.00;5069844;28;12251;-71
2024/01/16 06:22:43;;;;;;;;;0.00;0.00;;;;;1.26;91.83;100800.88;5068560;28;11602;-69
2024/01/16 06:25:09;;;;;;;;;1.00;1.00;;;;;1.23;92.20;100795.81;5063105;28;11579;-67
2024/01/16 06:27:36;;;;;;;;;1.00;1.00;;;;;1.17;91.94;100804.31;5068642;28;11598;-70
2024/01/16 06:30:03;;;;;;;;;2.50;1.25;;;;;1.13;92.00;100805.53;5065673;28;12288;-70
2024/01/16 06:32:30;;;;;;;;;2.00;1.50;;;;;0.92;92.99;100803.78;5069126;28;11465;-70
2024/01/16 06:34:57;;;;;;;;;1.25;0.25;;;;;0.92;93.54;100800.31;5066510;28;11598;-70
2024/01/16 06:37:23;;;;;;;;;1.50;1.50;;;;;1.01;93.58;100801.31;5062293;28;11510;-68
2024/01/16 06:39:50;;;;;;;;;1.00;1.00;;;;;1.01;93.61;100798.66;5064347;28;11610;-69
2024/01/16 06:42:17;;;;;;;;;0.75;0.75;;;;;1.07;93.67;100788.38;5053014;28;11478;-70
2024/01/16 06:44:43;;;;;;;;;0.00;0.00;;;;;1.13;93.92;100782.50;5056965;28;11472;-70
2024/01/16 06:47:10;;;;;;;;;0.25;0.25;;;;;1.20;93.52;100780.19;5048473;28;11480;-68
2024/01/16 06:49:37;;;;;;;;;0.00;0.00;;;;;1.18;93.21;100785.63;5063445;28;11482;-69
2024/01/16 06:52:04;;;;;;;;;2.25;0.00;;;;;1.20;93.55;100781.00;5067743;28;11465;-70
2024/01/16 06:54:30;;;;;;;;;0.00;0.00;;;;;1.23;93.45;100771.97;5067753;28;11520;-69
2024/01/16 06:56:57;;;;;;;;;0.00;0.00;;;;;1.27;92.90;100764.56;5063607;28;11551;-67
2024/01/16 06:59:23;;;;;;;;;1.00;0.00;;;;;1.75;97.98;100759.34;5068144;28;11461;-69
2024/01/16 07:01:51;;;;;;;;;2.00;2.00;;;;;1.75;94.75;100763.81;5071233;28;11487;-69
2024/01/16 07:04:17;;;;;;;;;1.00;1.00;;;;;1.64;93.36;100770.09;5073003;28;11523;-69
2024/01/16 07:06:44;;;;;;;;;6.50;2.50;;;;;1.59;93.13;100756.41;5071890;28;11482;-69
2024/01/16 07:09:11;;;;;;;;;2.00;1.00;;;;;1.53;92.75;100759.59;5071818;28;11566;-67
2024/01/16 07:11:42;;;;;;;;;1.50;1.50;;;;;1.48;92.54;100763.50;5072364;28;11605;-71
2024/01/16 07:14:09;;;;;;;;;2.00;1.75;;;;;1.41;92.34;100772.97;5070979;28;11518;-67
2024/01/16 07:16:36;;;;;;;;;0.50;0.00;;;;;1.41;92.17;100772.13;5073145;28;11517;-69
2024/01/16 07:19:03;;;;;;;;;1.00;1.00;;;;;1.45;92.25;100779.66;5070169;28;11480;-69
2024/01/16 07:21:30;;;;;;;;;0.50;0.50;;;;;1.49;91.98;100783.72;5071066;28;11503;-69
2024/01/16 07:23:57;;;;;;;;;1.75;1.50;;;;;1.49;91.91;100789.03;5072813;28;11487;-69
2024/01/16 07:26:24;;;;;;;;;1.50;1.00;;;;;1.52;91.53;100803.84;5054741;28;11628;-69
2024/01/16 07:28:50;;;;;;;;;0.00;0.00;;;;;1.52;91.50;100809.16;5073002;28;11496;-69
2024/01/16 07:31:17;;;;;;;;;0.00;0.00;;;;;1.53;91.41;100804.69;5072046;28;12366;-67
2024/01/16 07:33:44;;;;;;;;;0.75;0.75;;;;;1.54;91.19;100814.31;5072616;28;11520;-68
2024/01/16 07:36:11;;;;;;;;;0.00;0.00;;;;;1.55;91.49;100802.75;5071603;28;11539;-69
2024/01/16 07:38:38;;;;;;;;;0.00;0.00;;;;;1.57;91.27;100800.78;5072506;28;11462;-68
2024/01/16 07:41:06;;;;;;;;;1.75;1.00;;;;;1.55;91.34;100806.22;5071747;28;11489;-65
2024/01/16 07:43:33;;;;;;;;;1.00;0.00;;;;;1.57;91.68;100811.38;5071380;28;11555;-68
2024/01/16 07:45:59;;;;;;;;;2.00;2.00;;;;;1.57;91.09;100812.22;5072298;28;11590;-69
2024/01/16 07:48:26;;;;;;;;;2.75;1.75;;;;;1.59;91.08;100820.06;5071833;28;11499;-67
2024/01/16 07:50:53;;;;;;;;;1.50;1.50;;;;;1.56;91.18;100818.50;5071086;28;12231;-69
2024/01/16 07:53:20;;;;;;;;;1.50;1.50;;;;;1.56;91.21;100810.56;5062865;28;11477;-68
2024/01/16 07:55:47;;;;;;;;;2.00;2.00;;;;;1.55;90.96;100806.22;5071948;28;12139;-67
2024/01/16 07:58:14;;;;;;;;;4.25;4.25;;;;;1.54;91.25;100806.34;5066934;28;11478;-69
2024/01/16 08:00:40;;;;;;;;;4.00;2.00;;;;;1.53;91.17;100810.81;5046072;28;12206;-68
2024/01/16 08:03:11;;;;;;;;;4.00;4.00;;;;;1.54;91.13;100806.34;5066042;28;11521;-69
2024/01/16 08:05:38;;;;;;;;;8.00;4.00;;;;;1.53;91.47;100808.16;5050454;28;12309;-67
2024/01/16 08:08:08;;;;;;;;;5.00;4.50;;;;;1.53;91.22;100802.03;5050377;28;11505;-68
2024/01/16 08:10:34;;;;;;;;;5.00;4.00;;;;;1.52;91.45;100803.00;5049861;28;12240;-67
2024/01/16 08:13:01;;;;;;;;;4.00;4.00;;;;;1.52;91.36;100797.72;5084558;23;11546;-66
2024/01/16 08:15:27;;;;;;;;;6.00;6.00;;;;;1.48;91.84;100808.59;5068693;28;12217;-67
2024/01/16 08:17:54;;;;;;;;;2.50;2.00;;;;;1.49;91.71;100807.59;5076657;28;12236;-65
2024/01/16 08:20:21;;;;;;;;;8.00;5.00;;;;;1.52;92.27;100806.50;5062079;28;11569;-67
2024/01/16 08:22:50;;;;;;;;;4.25;2.50;;;;;1.58;92.02;100803.31;5069526;28;11484;-67
2024/01/16 08:25:16;;;;;;;;;7.00;5.00;;;;;1.60;91.90;100805.81;5063992;28;11511;-67
2024/01/16 08:27:43;;;;;;;;;9.25;5.00;;;;;1.58;91.33;100800.66;5071576;28;11606;-67
2024/01/16 08:30:12;;;;;;;;;7.25;7.25;;;;;1.57;91.41;100798.13;5065439;28;11498;-67
2024/01/16 08:32:39;;;;;;;;;8.00;7.00;;;;;1.57;91.68;100798.97;5051119;28;11575;-67
2024/01/16 08:35:06;;;;;;;;;8.50;5.00;;;;;1.55;91.62;100794.78;5065346;28;11489;-67
2024/01/16 08:37:34;;;;;;;;;8.00;8.00;;;;;1.54;91.27;100793.94;5086781;28;11492;-67
2024/01/16 08:40:00;;;;;;;;;13.00;7.50;;;;;1.53;91.64;100802.88;5071210;28;12262;-67
2024/01/16 08:42:27;;;;;;;;;12.50;12.50;;;;;1.54;91.84;100795.75;5060169;28;12234;-67
2024/01/16 08:44:53;;;;;;;;;8.00;8.00;;;;;1.57;91.71;100809.56;5051071;28;11516;-67
2024/01/16 08:47:20;;;;;;;;;8.00;8.00;;;;;1.61;91.34;100807.50;5052322;28;11489;-67
2024/01/16 08:49:48;;;;;;;;;7.00;7.00;;;;;1.64;91.34;100808.06;5049831;28;11535;-67
2024/01/16 08:52:15;;;;;;;;;6.50;6.50;;;;;1.67;91.27;100801.66;5050680;28;11511;-67
2024/01/16 08:54:42;;;;;;;;;11.50;10.50;;;;;1.68;90.96;100803.31;5050831;28;11515;-67
2024/01/16 08:57:10;;;;;;;;;7.50;7.50;;;;;1.68;90.89;100798.84;5063330;28;11526;-67
2024/01/16 08:59:40;;;;;;;;;7.50;7.25;;;;;1.65;90.42;100793.81;5070854;28;11468;-67
2024/01/16 09:02:07;;;;;;;;;10.75;9.75;;;;;1.64;90.37;100783.34;5069185;28;12333;-67
2024/01/16 09:04:34;;;;;;;;;8.00;8.00;;;;;1.65;90.39;100785.84;5086316;28;11502;-67
2024/01/16 09:07:04;;;;;;;;;13.75;8.00;;;;;1.65;90.30;100787.66;5070715;28;11495;-67
2024/01/16 09:09:31;;;;;;;;;9.75;9.00;;;;;1.67;90.21;100785.72;5070961;28;11538;-67
2024/01/16 09:11:57;;;;;;;;;8.00;5.50;;;;;1.70;89.88;100793.38;5070321;28;11595;-67
2024/01/16 09:14:24;;;;;;;;;9.25;9.25;;;;;1.63;89.84;100781.69;5068761;28;11494;-67
2024/01/16 09:16:53;;;;;;;;;11.75;9.75;;;;;1.66;89.71;100784.03;5070521;28;11555;-67
2024/01/16 09:19:19;;;;;;;;;10.25;8.50;;;;;1.69;89.54;100791.72;5070340;28;11637;-67
2024/01/16 09:21:46;;;;;;;;;13.00;9.25;;;;;1.68;89.34;100798.00;5069574;28;11492;-67
2024/01/16 09:24:12;;;;;;;;;10.75;10.00;;;;;1.70;89.17;100796.91;5086011;28;11648;-67
2024/01/16 09:26:39;;;;;;;;;11.25;9.75;;;;;1.75;89.05;100795.66;5070129;28;12306;-68
2024/01/16 09:29:08;;;;;;;;;9.25;9.25;;;;;1.77;88.96;100799.81;5070280;28;11506;-68
2024/01/16 09:31:35;;;;;;;;;14.00;11.00;;;;;1.82;88.70;100791.44;5067036;28;11581;-67
2024/01/16 09:34:03;;;;;;;;;11.75;10.00;;;;;1.75;88.21;100790.34;5070302;28;11538;-67
2024/01/16 09:36:36;;;;;;;;;10.00;9.50;;;;;1.73;88.23;100790.47;5070143;28;11469;-67
2024/01/16 09:39:16;;;;;;;;;11.25;7.50;;;;;1.70;88.34;100788.94;5085699;28;11486;-70
2024/01/16 09:41:45;;;;;;;;;11.00;10.25;;;;;1.85;89.12;100794.66;5069778;28;11556;-67
2024/01/16 09:44:12;;;;;;;;;11.50;11.50;;;;;1.82;88.22;100784.31;5069985;28;12136;-67
2024/01/16 09:46:46;;;;;;;;;8.50;7.25;;;;;1.81;87.98;100787.13;5068465;28;11504;-67
2024/01/16 09:49:15;;;;;;;;;9.00;9.00;;;;;1.78;87.98;100787.41;5070113;28;11493;-67
2024/01/16 09:51:43;;;;;;;;;8.75;6.00;;;;;1.73;87.64;100785.16;5069585;28;11517;-67
2024/01/16 09:54:09;;;;;;;;;9.50;7.00;;;;;1.72;87.68;100783.50;5070205;28;11538;-67
2024/01/16 09:56:42;;;;;;;;;10.00;8.00;;;;;1.65;87.40;100779.72;5068893;28;11491;-67
2024/01/16 09:59:09;;;;;;;;;7.50;7.50;;;;;1.63;87.49;100773.72;5070295;28;12184;-67
2024/01/16 10:01:37;;;;;;;;;11.00;9.25;;;;;1.70;87.03;100783.63;5051642;28;11609;-67
2024/01/16 10:04:04;;;;;;;;;8.50;7.25;;;;;1.77;87.21;100770.63;5049808;28;11477;-67
2024/01/16 10:06:33;;;;;;;;;6.50;6.50;;;;;1.82;87.00;100767.56;5048692;28;11490;-67
2024/01/16 10:09:00;;;;;;;;;5.00;5.00;;;;;1.86;86.62;100772.44;5049951;28;11488;-67
2024/01/16 10:11:29;;;;;;;;;4.75;4.75;;;;;1.87;86.60;100776.81;5049551;28;11503;-67
2024/01/16 10:13:58;;;;;;;;;4.00;4.00;;;;;1.83;85.90;100771.91;5049734;28;11497;-67
2024/01/16 10:17:01;;;;;;;;;4.25;4.25;;;;;1.82;85.94;100767.56;5050165;28;11563;-67
2024/01/16 10:19:29;;;;;;;;;5.00;5.00;;;;;1.87;85.81;100771.50;5049933;28;11486;-67
2024/01/16 10:22:12;;;;;;;;;4.00;4.00;;;;;1.91;85.43;100772.88;5048153;28;11503;-67
2024/01/16 10:24:40;;;;;;;;;5.00;5.00;;;;;1.95;85.16;100768.97;5049903;28;12232;-67
2024/01/16 10:27:07;;;;;;;;;3.75;3.75;;;;;2.00;84.84;100770.38;5048579;28;11475;-67
2024/01/16 10:29:34;;;;;;;;;6.75;5.25;;;;;2.01;84.63;100772.03;5048553;28;11518;-67
2024/01/16 10:32:28;;;;;;;;;2.00;2.00;;;;;2.03;84.50;100767.44;5049661;28;12262;-67
2024/01/16 10:35:05;;;;;;;;;7.50;5.00;;;;;2.04;84.08;100756.66;5052911;28;11517;-67
2024/01/16 10:37:45;;;;;;;;;4.75;4.75;;;;;2.05;84.20;100754.84;5053747;28;11509;-67
2024/01/16 10:40:26;;;;;;;;;7.25;5.00;;;;;2.05;84.04;100762.81;5052230;28;11508;-67
2024/01/16 10:43:01;;;;;;;;;4.50;3.50;;;;;2.09;84.19;100764.22;5051931;28;11648;-67
2024/01/16 10:45:28;;;;;;;;;4.75;4.00;;;;;2.09;83.77;100765.03;5052318;28;11509;-67
2024/01/16 10:48:03;;;;;;;;;4.00;4.00;;;;;2.14;83.73;100762.78;5053369;28;12303;-67
2024/01/16 10:50:34;;;;;;;;;5.00;5.00;;;;;2.14;83.88;100759.31;5059421;28;11465;-67
2024/01/16 10:53:06;;;;;;;;;4.50;2.00;;;;;2.17;83.37;100751.06;5072981;28;11567;-67
2024/01/16 10:55:53;;;;;;;;;7.00;7.00;;;;;2.19;83.74;100749.13;5073154;28;12387;-67
2024/01/16 10:58:22;;;;;;;;;5.00;4.00;;;;;2.22;83.68;100749.66;5073304;28;11673;-67
2024/01/16 11:00:52;;;;;;;;;1.50;1.50;;;;;2.29;83.41;100749.91;5073153;28;11470;-67
2024/01/16 11:03:28;;;;;;;;;2.00;2.00;;;;;2.38;83.17;100745.56;5072885;28;11482;-67
2024/01/16 11:05:57;;;;;;;;;3.00;3.00;;;;;2.39;82.98;100745.44;5073070;28;11479;-67
2024/01/16 11:08:30;;;;;;;;;5.50;5.50;;;;;2.40;82.56;100747.09;5072210;28;11508;-67
2024/01/16 11:11:00;;;;;;;;;4.75;4.50;;;;;2.45;82.42;100739.53;5074867;28;11475;-68
2024/01/16 11:13:28;;;;;;;;;1.50;1.50;;;;;2.48;82.29;100741.09;5056045;28;11488;-68
2024/01/16 11:15:57;;;;;;;;;4.00;4.00;;;;;2.54;81.49;100735.16;5071589;28;12211;-68
2024/01/16 11:18:25;;;;;;;;;1.75;1.00;;;;;2.59;81.31;100724.94;5071807;28;11479;-67
2024/01/16 11:20:54;;;;;;;;;1.00;1.00;;;;;2.66;80.48;100723.38;5071719;28;11601;-68
2024/01/16 11:23:34;;;;;;;;;1.00;1.00;;;;;2.66;80.26;100714.56;5071240;28;11561;-67
2024/01/16 11:26:33;;;;;;;;;0.00;0.00;;;;;2.73;79.18;100719.16;5069449;28;11492;-68
2024/01/16 11:29:21;;;;;;;;;0.00;0.00;;;;;2.65;78.21;100723.53;5072770;28;11439;-68
2024/01/16 11:31:47;;;;;;;;;1.25;1.00;;;;;2.62;77.61;100715.84;5070613;28;11415;-68
2024/01/16 11:34:14;;;;;;;;;0.00;0.00;;;;;2.64;77.26;100717.38;5071292;28;11550;-68
2024/01/16 11:36:54;;;;;;;;;0.00;0.00;;;;;2.48;76.16;100706.53;5072416;28;11501;-68